Impacts METAR Board
IDs:

KPHX - Phoenix/Sky Harbor, AZ, US

Updated at: 1000 UTC 22 Apr 2018
Potential Impact None Slight Moderate High
Time 21/22Z 21/23Z 22/00Z 22/01Z 22/02Z 22/03Z 22/04Z 22/05Z 22/06Z 22/07Z 22/08Z 22/09Z 22/10Z
Temp86 88 88 88 86 85 82 79 77 75 72 72 70
Dewpt29 29 28 28 29 30 30 33 33 37 36 35 37
Altim29.92 29.89 29.87 29.86 29.87 29.88 29.90 29.92 29.92 29.92 29.90 29.90 29.88
VIS10 10 10 10 10 10 10 10 10 10 10 10 10
CIG-- -- 290 290 290 -- 250 250 250 250 250 250 250
CoverSCTSCTBKNBKNBKNSCTBKNBKNBKNBKNBKNBKNBKN
FltCatVFRVFRVFRVFRVFRVFRVFRVFRVFRVFRVFRVFRVFR
WX--------------------------
WDir0300002602802300100809012080
WSpd0 6 3 0 10 10 5 0 3 6 6 5 5
WGst-- 15 14 -- -- -- -- -- -- -- -- -- --
Raw hourly METARs
KPHX 212151Z 00000KT 10SM SCT250 SCT290 30/M02 A2992 RMK AO2 SLP117 T03001017
KPHX 212251Z 30006G15KT 10SM SCT250 SCT290 31/M02 A2989 RMK AO2 SLP105 T03111017
KPHX 212351Z VRB03G14KT 10SM SCT250 BKN290 31/M02 A2987 RMK AO2 SLP100 T03111022 10317 20250 56029
KPHX 220051Z 00000KT 10SM SCT250 BKN290 31/M02 A2986 RMK AO2 SLP097 T03111022
KPHX 220151Z 26010KT 10SM SCT250 BKN290 30/M02 A2987 RMK AO2 SLP099 T03001017
KPHX 220251Z 28010KT 10SM SCT250 29/M01 A2988 RMK AO2 SLP104 T02941011 53004
KPHX 220351Z 23005KT 10SM BKN250 28/M01 A2990 RMK AO2 SLP110 T02781011
KPHX 220451Z 00000KT 10SM BKN250 26/01 A2992 RMK AO2 SLP116 T02610006
KPHX 220551Z 10003KT 10SM BKN250 25/01 A2992 RMK AO2 SLP118 T02500006 10317 20250 51014
KPHX 220651Z 08006KT 10SM BKN250 24/03 A2992 RMK AO2 SLP116 T02390028 403170150
KPHX 220751Z 09006KT 10SM BKN250 22/02 A2990 RMK AO2 SLP110 T02220022
KPHX 220851Z 12005KT 10SM BKN250 22/02 A2990 RMK AO2 SLP108 T02220017 58009
KPHX 220951Z 08005KT 10SM BKN250 21/03 A2988 RMK AO2 SLP103 T02110028



Page loaded:  10:51 UTC  |   03:51 AM Pacific  |   04:51 AM Mountain  |   05:51 AM Central  |   06:51 AM Eastern

 

ADVISORIES

FORECASTS

FORECASTS

OBSERVATIONS

USER TOOLS

ABOUT US